Moi International Airport

Airport
ICAO code: 
HKMO
IATA Code: 
MBA
Summary
ICAO Region: 
AFI
Territory: 
Location: 
Mombasa, Mombasa County
Serving: 
Mombasa
Elevation: 
200 ft
Coordinates: 
Aerial View: 
4° 1' 36.804" S, 39° 36' 5.004" E
Metar
Observation
HKMO 180900Z 34007KT 9999 BKN024 30/21 Q1013 NOSIG
Station
Mombasa
Date/Time
2022-01-18 09:00:00
Wind direction
340°
Wind speed
07 kts
Lowest cloud amount
broken clouds
Temperature
30°C
Dew point
21°C
Humidity
58%
QNH
1013 hPa
Weather condition
n/a

International airport serving Mombasa, Kenya.

Climatology

Tropical Savanna climate (Köppen climate classification As)

Runways

Designator Length Width Surface Rops
15/33 1363 36 ASP Yes/Yes
3/21 3350 46 ASP Yes/Yes
Airport map: 
Aerial View: 

SKYbrary Partners:

Safety knowledge contributed by: